sensor_id;sensor_type;location;lat;lon;timestamp;pressure;altitude;pressure_sealevel;temperature;humidity
10480;BME280;12789;42.610;23.040;2022-09-09T00:00:57;93836.56;;;16.67;100.00
10480;BME280;12789;42.610;23.040;2022-09-09T00:03:31;93834.94;;;16.66;100.00
10480;BME280;12789;42.610;23.040;2022-09-09T00:06:09;93835.50;;;16.76;100.00
10480;BME280;12789;42.610;23.040;2022-09-09T00:08:54;93831.41;;;16.59;100.00
10480;BME280;12789;42.610;23.040;2022-09-09T00:11:28;93841.66;;;16.83;100.00
10480;BME280;12789;42.610;23.040;2022-09-09T00:13:58;93835.00;;;16.58;100.00
10480;BME280;12789;42.610;23.040;2022-09-09T00:16:31;93824.28;;;16.46;100.00
10480;BME280;12789;42.610;23.040;2022-09-09T00:19:06;93832.50;;;16.43;100.00
10480;BME280;12789;42.610;23.040;2022-09-09T00:21:37;93815.41;;;16.54;100.00
10480;BME280;12789;42.610;23.040;2022-09-09T00:24:11;93816.00;;;16.42;100.00
10480;BME280;12789;42.610;23.040;2022-09-09T00:26:48;93816.44;;;16.46;100.00
10480;BME280;12789;42.610;23.040;2022-09-09T00:29:26;93814.72;;;16.38;100.00
10480;BME280;12789;42.610;23.040;2022-09-09T00:31:57;93816.06;;;16.34;100.00
10480;BME280;12789;42.610;23.040;2022-09-09T00:34:29;93808.03;;;16.05;100.00
10480;BME280;12789;42.610;23.040;2022-09-09T00:36:59;93808.69;;;16.30;100.00
10480;BME280;12789;42.610;23.040;2022-09-09T00:39:31;93793.09;;;15.83;100.00
10480;BME280;12789;42.610;23.040;2022-09-09T00:42:12;93793.41;;;16.19;100.00
10480;BME280;12789;42.610;23.040;2022-09-09T00:44:51;93815.53;;;16.31;100.00
10480;BME280;12789;42.610;23.040;2022-09-09T00:47:30;93807.06;;;16.29;100.00
10480;BME280;12789;42.610;23.040;2022-09-09T00:50:11;93796.91;;;16.34;100.00
10480;BME280;12789;42.610;23.040;2022-09-09T00:52:49;93784.66;;;16.26;100.00
10480;BME280;12789;42.610;23.040;2022-09-09T00:55:25;93776.00;;;16.03;100.00
10480;BME280;12789;42.610;23.040;2022-09-09T00:57:54;93793.84;;;16.22;100.00
10480;BME280;12789;42.610;23.040;2022-09-09T01:00:23;93814.56;;;16.32;100.00
10480;BME280;12789;42.610;23.040;2022-09-09T01:03:00;93810.00;;;16.34;100.00
10480;BME280;12789;42.610;23.040;2022-09-09T01:05:35;93812.41;;;16.13;100.00
10480;BME280;12789;42.610;23.040;2022-09-09T01:08:16;93819.13;;;16.38;100.00
10480;BME280;12789;42.610;23.040;2022-09-09T01:10:50;93820.84;;;16.23;100.00
10480;BME280;12789;42.610;23.040;2022-09-09T01:13:23;93819.00;;;16.31;100.00
10480;BME280;12789;42.610;23.040;2022-09-09T01:15:51;93826.53;;;15.96;100.00
10480;BME280;12789;42.610;23.040;2022-09-09T01:18:22;93833.03;;;16.00;100.00
10480;BME280;12789;42.610;23.040;2022-09-09T01:20:58;93830.78;;;15.97;100.00
10480;BME280;12789;42.610;23.040;2022-09-09T01:23:38;93813.38;;;16.12;100.00
10480;BME280;12789;42.610;23.040;2022-09-09T01:26:16;93783.63;;;15.90;100.00
10480;BME280;12789;42.610;23.040;2022-09-09T01:28:46;93787.25;;;16.12;100.00
10480;BME280;12789;42.610;23.040;2022-09-09T01:31:19;93811.31;;;16.30;100.00
10480;BME280;12789;42.610;23.040;2022-09-09T01:33:47;93810.38;;;16.23;100.00
10480;BME280;12789;42.610;23.040;2022-09-09T01:36:19;93814.63;;;16.24;100.00
10480;BME280;12789;42.610;23.040;2022-09-09T01:38:48;93829.16;;;15.96;100.00
10480;BME280;12789;42.610;23.040;2022-09-09T01:41:16;93823.22;;;16.02;100.00
10480;BME280;12789;42.610;23.040;2022-09-09T01:43:44;93822.38;;;15.79;100.00
10480;BME280;12789;42.610;23.040;2022-09-09T01:46:12;93833.38;;;15.97;100.00
10480;BME280;12789;42.610;23.040;2022-09-09T01:48:41;93810.44;;;16.07;100.00
10480;BME280;12789;42.610;23.040;2022-09-09T01:51:09;93806.22;;;16.06;100.00
10480;BME280;12789;42.610;23.040;2022-09-09T01:53:38;93814.34;;;15.80;100.00
10480;BME280;12789;42.610;23.040;2022-09-09T01:56:23;93809.31;;;16.09;100.00
10480;BME280;12789;42.610;23.040;2022-09-09T01:59:19;93794.44;;;15.41;100.00
10480;BME280;12789;42.610;23.040;2022-09-09T02:01:57;93821.56;;;15.78;100.00
10480;BME280;12789;42.610;23.040;2022-09-09T02:04:37;93816.03;;;16.04;100.00
10480;BME280;12789;42.610;23.040;2022-09-09T02:07:14;93805.16;;;15.54;100.00
10480;BME280;12789;42.610;23.040;2022-09-09T02:09:51;93792.03;;;15.70;100.00
10480;BME280;12789;42.610;23.040;2022-09-09T02:12:20;93818.25;;;15.92;100.00
10480;BME280;12789;42.610;23.040;2022-09-09T02:14:54;93819.09;;;15.85;100.00
10480;BME280;12789;42.610;23.040;2022-09-09T02:17:26;93825.34;;;15.76;100.00
10480;BME280;12789;42.610;23.040;2022-09-09T02:19:59;93820.66;;;15.94;100.00
10480;BME280;12789;42.610;23.040;2022-09-09T02:22:32;93811.88;;;15.87;100.00
10480;BME280;12789;42.610;23.040;2022-09-09T02:25:05;93812.97;;;15.62;100.00
10480;BME280;12789;42.610;23.040;2022-09-09T02:27:33;93835.78;;;15.76;100.00
10480;BME280;12789;42.610;23.040;2022-09-09T02:30:04;93825.72;;;15.57;100.00
10480;BME280;12789;42.610;23.040;2022-09-09T02:32:34;93831.50;;;15.83;100.00
10480;BME280;12789;42.610;23.040;2022-09-09T02:35:05;93836.09;;;15.81;100.00
10480;BME280;12789;42.610;23.040;2022-09-09T02:37:38;93831.25;;;16.00;100.00
10480;BME280;12789;42.610;23.040;2022-09-09T02:40:09;93832.41;;;15.98;100.00
10480;BME280;12789;42.610;23.040;2022-09-09T02:42:39;93832.84;;;16.09;100.00
10480;BME280;12789;42.610;23.040;2022-09-09T02:45:09;93845.09;;;16.09;100.00
10480;BME280;12789;42.610;23.040;2022-09-09T02:47:39;93838.97;;;15.94;100.00
10480;BME280;12789;42.610;23.040;2022-09-09T02:50:13;93838.84;;;16.18;100.00
10480;BME280;12789;42.610;23.040;2022-09-09T02:52:56;93831.59;;;16.28;100.00
10480;BME280;12789;42.610;23.040;2022-09-09T02:55:37;93827.06;;;16.22;100.00
10480;BME280;12789;42.610;23.040;2022-09-09T02:58:07;93833.22;;;16.29;100.00
10480;BME280;12789;42.610;23.040;2022-09-09T03:00:39;93825.34;;;16.06;100.00
10480;BME280;12789;42.610;23.040;2022-09-09T03:03:07;93830.72;;;16.13;100.00
10480;BME280;12789;42.610;23.040;2022-09-09T03:05:34;93829.53;;;15.85;100.00
10480;BME280;12789;42.610;23.040;2022-09-09T03:08:02;93828.34;;;16.26;100.00
10480;BME280;12789;42.610;23.040;2022-09-09T03:10:31;93814.75;;;16.00;100.00
10480;BME280;12789;42.610;23.040;2022-09-09T03:12:57;93805.97;;;15.93;100.00
10480;BME280;12789;42.610;23.040;2022-09-09T03:15:25;93838.16;;;16.24;100.00
10480;BME280;12789;42.610;23.040;2022-09-09T03:17:56;93837.13;;;16.02;100.00
10480;BME280;12789;42.610;23.040;2022-09-09T03:20:23;93819.69;;;15.95;100.00
10480;BME280;12789;42.610;23.040;2022-09-09T03:22:51;93798.41;;;15.67;100.00
10480;BME280;12789;42.610;23.040;2022-09-09T03:25:18;93833.72;;;15.63;100.00
10480;BME280;12789;42.610;23.040;2022-09-09T03:27:45;93832.19;;;16.07;100.00
10480;BME280;12789;42.610;23.040;2022-09-09T03:30:13;93834.22;;;15.97;100.00
10480;BME280;12789;42.610;23.040;2022-09-09T03:32:40;93831.72;;;16.04;100.00
10480;BME280;12789;42.610;23.040;2022-09-09T03:35:08;93833.97;;;16.15;100.00
10480;BME280;12789;42.610;23.040;2022-09-09T03:37:35;93831.63;;;16.20;100.00
10480;BME280;12789;42.610;23.040;2022-09-09T03:40:04;93833.72;;;15.94;100.00
10480;BME280;12789;42.610;23.040;2022-09-09T03:42:31;93827.53;;;15.95;100.00
10480;BME280;12789;42.610;23.040;2022-09-09T03:44:58;93826.28;;;16.13;100.00
10480;BME280;12789;42.610;23.040;2022-09-09T03:47:27;93805.53;;;15.81;100.00
10480;BME280;12789;42.610;23.040;2022-09-09T03:49:54;93823.84;;;16.12;100.00
10480;BME280;12789;42.610;23.040;2022-09-09T03:52:23;93816.31;;;16.09;100.00
10480;BME280;12789;42.610;23.040;2022-09-09T03:54:51;93809.22;;;15.95;100.00
10480;BME280;12789;42.610;23.040;2022-09-09T03:57:18;93804.06;;;16.09;100.00
10480;BME280;12789;42.610;23.040;2022-09-09T03:59:45;93839.06;;;16.08;100.00
10480;BME280;12789;42.610;23.040;2022-09-09T04:02:12;93824.84;;;16.03;100.00
10480;BME280;12789;42.610;23.040;2022-09-09T04:04:39;93831.16;;;15.86;100.00
10480;BME280;12789;42.610;23.040;2022-09-09T04:07:06;93822.38;;;15.79;100.00
10480;BME280;12789;42.610;23.040;2022-09-09T04:09:34;93824.22;;;15.70;100.00
10480;BME280;12789;42.610;23.040;2022-09-09T04:12:02;93817.03;;;15.02;100.00
10480;BME280;12789;42.610;23.040;2022-09-09T04:14:30;93823.50;;;15.22;100.00
10480;BME280;12789;42.610;23.040;2022-09-09T04:16:56;93825.31;;;15.37;100.00
10480;BME280;12789;42.610;23.040;2022-09-09T04:19:24;93823.19;;;15.41;100.00
10480;BME280;12789;42.610;23.040;2022-09-09T04:21:52;93824.47;;;15.83;100.00
10480;BME280;12789;42.610;23.040;2022-09-09T04:24:19;93828.91;;;15.83;100.00
10480;BME280;12789;42.610;23.040;2022-09-09T04:26:48;93824.50;;;16.14;100.00
10480;BME280;12789;42.610;23.040;2022-09-09T04:29:16;93823.91;;;16.26;100.00
10480;BME280;12789;42.610;23.040;2022-09-09T04:31:43;93818.28;;;16.07;100.00
10480;BME280;12789;42.610;23.040;2022-09-09T04:34:10;93831.47;;;15.91;100.00
10480;BME280;12789;42.610;23.040;2022-09-09T04:36:37;93842.88;;;15.98;100.00
10480;BME280;12789;42.610;23.040;2022-09-09T04:39:05;93848.63;;;15.85;100.00
10480;BME280;12789;42.610;23.040;2022-09-09T04:41:33;93847.09;;;16.37;100.00
10480;BME280;12789;42.610;23.040;2022-09-09T04:44:01;93837.97;;;16.55;100.00
10480;BME280;12789;42.610;23.040;2022-09-09T04:46:29;93836.44;;;16.08;100.00
10480;BME280;12789;42.610;23.040;2022-09-09T04:48:57;93830.13;;;16.25;100.00
10480;BME280;12789;42.610;23.040;2022-09-09T04:51:25;93829.28;;;16.55;100.00
10480;BME280;12789;42.610;23.040;2022-09-09T04:53:52;93820.28;;;16.80;100.00
10480;BME280;12789;42.610;23.040;2022-09-09T04:56:19;93818.66;;;16.56;100.00
10480;BME280;12789;42.610;23.040;2022-09-09T04:58:46;93811.84;;;16.70;100.00
10480;BME280;12789;42.610;23.040;2022-09-09T05:01:16;93779.91;;;16.30;100.00
10480;BME280;12789;42.610;23.040;2022-09-09T05:03:44;93806.78;;;16.68;100.00
10480;BME280;12789;42.610;23.040;2022-09-09T05:06:13;93805.97;;;16.46;100.00
10480;BME280;12789;42.610;23.040;2022-09-09T05:08:42;93816.09;;;16.18;100.00
10480;BME280;12789;42.610;23.040;2022-09-09T05:11:16;93816.09;;;16.48;100.00
10480;BME280;12789;42.610;23.040;2022-09-09T05:13:45;93824.16;;;16.84;100.00
10480;BME280;12789;42.610;23.040;2022-09-09T05:16:12;93805.88;;;16.61;100.00
10480;BME280;12789;42.610;23.040;2022-09-09T05:18:42;93799.81;;;16.39;100.00
10480;BME280;12789;42.610;23.040;2022-09-09T05:21:09;93806.44;;;16.49;100.00
10480;BME280;12789;42.610;23.040;2022-09-09T05:23:37;93807.50;;;16.62;100.00
10480;BME280;12789;42.610;23.040;2022-09-09T05:26:05;93807.56;;;16.91;100.00
10480;BME280;12789;42.610;23.040;2022-09-09T05:28:34;93797.09;;;16.91;100.00
10480;BME280;12789;42.610;23.040;2022-09-09T05:31:03;93828.16;;;16.94;100.00
10480;BME280;12789;42.610;23.040;2022-09-09T05:33:35;93806.66;;;16.99;100.00
10480;BME280;12789;42.610;23.040;2022-09-09T05:36:06;93789.09;;;17.22;100.00
10480;BME280;12789;42.610;23.040;2022-09-09T05:38:34;93792.75;;;17.50;100.00
10480;BME280;12789;42.610;23.040;2022-09-09T05:41:02;93804.81;;;17.22;100.00
10480;BME280;12789;42.610;23.040;2022-09-09T05:43:30;93810.28;;;17.78;100.00
10480;BME280;12789;42.610;23.040;2022-09-09T05:46:02;93817.16;;;18.29;100.00
10480;BME280;12789;42.610;23.040;2022-09-09T05:48:30;93820.00;;;19.39;100.00
10480;BME280;12789;42.610;23.040;2022-09-09T05:50:57;93809.13;;;18.16;100.00
10480;BME280;12789;42.610;23.040;2022-09-09T05:53:26;93814.25;;;18.80;100.00
10480;BME280;12789;42.610;23.040;2022-09-09T05:56:01;93808.41;;;18.43;100.00
10480;BME280;12789;42.610;23.040;2022-09-09T05:58:29;93828.81;;;18.62;100.00
10480;BME280;12789;42.610;23.040;2022-09-09T06:01:01;93821.50;;;18.07;100.00
10480;BME280;12789;42.610;23.040;2022-09-09T06:03:28;93823.06;;;18.02;100.00
10480;BME280;12789;42.610;23.040;2022-09-09T06:05:59;93827.22;;;18.11;100.00
10480;BME280;12789;42.610;23.040;2022-09-09T06:08:28;93835.19;;;18.53;100.00
10480;BME280;12789;42.610;23.040;2022-09-09T06:11:01;93841.88;;;18.76;100.00
10480;BME280;12789;42.610;23.040;2022-09-09T06:13:28;93831.28;;;18.28;100.00
10480;BME280;12789;42.610;23.040;2022-09-09T06:15:55;93818.31;;;18.62;100.00
10480;BME280;12789;42.610;23.040;2022-09-09T06:18:22;93825.03;;;18.29;100.00
10480;BME280;12789;42.610;23.040;2022-09-09T06:20:56;93830.69;;;18.89;100.00
10480;BME280;12789;42.610;23.040;2022-09-09T06:23:23;93831.41;;;18.83;100.00
10480;BME280;12789;42.610;23.040;2022-09-09T06:25:52;93834.66;;;19.94;100.00
10480;BME280;12789;42.610;23.040;2022-09-09T06:28:27;93816.75;;;19.37;100.00
10480;BME280;12789;42.610;23.040;2022-09-09T06:30:57;93820.06;;;19.03;100.00
10480;BME280;12789;42.610;23.040;2022-09-09T06:33:25;93822.38;;;19.13;100.00
10480;BME280;12789;42.610;23.040;2022-09-09T06:35:53;93809.88;;;19.76;100.00
10480;BME280;12789;42.610;23.040;2022-09-09T06:38:22;93825.38;;;19.98;100.00
10480;BME280;12789;42.610;23.040;2022-09-09T06:40:55;93823.53;;;19.58;100.00
10480;BME280;12789;42.610;23.040;2022-09-09T06:43:23;93832.75;;;20.09;100.00
10480;BME280;12789;42.610;23.040;2022-09-09T06:45:53;93831.19;;;20.21;100.00
10480;BME280;12789;42.610;23.040;2022-09-09T06:48:21;93830.81;;;20.37;100.00
10480;BME280;12789;42.610;23.040;2022-09-09T06:50:48;93840.41;;;20.51;100.00
10480;BME280;12789;42.610;23.040;2022-09-09T06:53:16;93848.53;;;20.69;100.00
10480;BME280;12789;42.610;23.040;2022-09-09T06:55:44;93847.47;;;20.51;100.00
10480;BME280;12789;42.610;23.040;2022-09-09T06:58:13;93850.91;;;21.43;100.00
10480;BME280;12789;42.610;23.040;2022-09-09T07:00:41;93847.97;;;21.97;100.00
10480;BME280;12789;42.610;23.040;2022-09-09T07:03:09;93856.97;;;21.44;100.00
10480;BME280;12789;42.610;23.040;2022-09-09T07:05:36;93832.53;;;22.00;100.00
10480;BME280;12789;42.610;23.040;2022-09-09T07:08:03;93839.13;;;21.65;100.00
10480;BME280;12789;42.610;23.040;2022-09-09T07:10:31;93846.16;;;22.04;100.00
10480;BME280;12789;42.610;23.040;2022-09-09T07:12:59;93844.25;;;22.17;100.00
10480;BME280;12789;42.610;23.040;2022-09-09T07:15:29;93827.19;;;22.20;100.00
10480;BME280;12789;42.610;23.040;2022-09-09T07:18:00;93833.88;;;22.29;100.00
10480;BME280;12789;42.610;23.040;2022-09-09T07:20:27;93847.13;;;22.16;100.00
10480;BME280;12789;42.610;23.040;2022-09-09T07:22:55;93836.78;;;22.65;100.00
10480;BME280;12789;42.610;23.040;2022-09-09T07:25:24;93824.50;;;23.38;100.00
10480;BME280;12789;42.610;23.040;2022-09-09T07:27:56;93831.84;;;23.36;100.00
10480;BME280;12789;42.610;23.040;2022-09-09T07:30:23;93835.94;;;23.32;100.00
10480;BME280;12789;42.610;23.040;2022-09-09T07:32:52;93824.81;;;23.97;100.00
10480;BME280;12789;42.610;23.040;2022-09-09T07:35:19;93823.34;;;24.01;100.00
10480;BME280;12789;42.610;23.040;2022-09-09T07:37:46;93817.00;;;24.20;100.00
10480;BME280;12789;42.610;23.040;2022-09-09T07:40:13;93812.50;;;24.56;100.00
10480;BME280;12789;42.610;23.040;2022-09-09T07:42:40;93825.72;;;25.15;100.00
10480;BME280;12789;42.610;23.040;2022-09-09T07:45:07;93796.97;;;25.42;100.00
10480;BME280;12789;42.610;23.040;2022-09-09T07:47:34;93816.44;;;24.47;100.00
10480;BME280;12789;42.610;23.040;2022-09-09T07:50:03;93832.31;;;25.13;100.00
10480;BME280;12789;42.610;23.040;2022-09-09T07:52:31;93819.69;;;24.97;100.00
10480;BME280;12789;42.610;23.040;2022-09-09T07:54:58;93824.34;;;25.13;100.00
10480;BME280;12789;42.610;23.040;2022-09-09T07:57:25;93825.66;;;24.45;100.00
10480;BME280;12789;42.610;23.040;2022-09-09T07:59:52;93827.69;;;24.79;100.00
10480;BME280;12789;42.610;23.040;2022-09-09T08:02:20;93828.25;;;25.10;100.00
10480;BME280;12789;42.610;23.040;2022-09-09T08:04:46;93822.47;;;25.02;100.00
10480;BME280;12789;42.610;23.040;2022-09-09T08:07:15;93826.19;;;25.65;100.00
10480;BME280;12789;42.610;23.040;2022-09-09T08:09:42;93821.47;;;25.14;100.00
10480;BME280;12789;42.610;23.040;2022-09-09T08:12:09;93816.59;;;24.70;100.00
10480;BME280;12789;42.610;23.040;2022-09-09T08:14:38;93824.41;;;24.65;100.00
10480;BME280;12789;42.610;23.040;2022-09-09T08:17:05;93834.91;;;25.31;100.00
10480;BME280;12789;42.610;23.040;2022-09-09T08:19:32;93823.72;;;25.29;100.00
10480;BME280;12789;42.610;23.040;2022-09-09T08:22:01;93837.94;;;25.34;100.00
10480;BME280;12789;42.610;23.040;2022-09-09T08:24:29;93823.88;;;25.57;100.00
10480;BME280;12789;42.610;23.040;2022-09-09T08:26:57;93826.75;;;25.32;99.87
10480;BME280;12789;42.610;23.040;2022-09-09T08:29:24;93823.50;;;25.01;90.78
10480;BME280;12789;42.610;23.040;2022-09-09T08:31:54;93827.03;;;24.47;92.25
10480;BME280;12789;42.610;23.040;2022-09-09T08:34:23;93819.97;;;25.71;92.03
10480;BME280;12789;42.610;23.040;2022-09-09T08:36:51;93816.59;;;26.32;88.80
10480;BME280;12789;42.610;23.040;2022-09-09T08:39:20;93807.47;;;25.37;89.75
10480;BME280;12789;42.610;23.040;2022-09-09T08:42:05;93823.19;;;25.73;90.42
10480;BME280;12789;42.610;23.040;2022-09-09T08:44:50;93820.75;;;25.60;89.39
10480;BME280;12789;42.610;23.040;2022-09-09T08:47:25;93808.91;;;26.59;85.73
10480;BME280;12789;42.610;23.040;2022-09-09T08:50:05;93811.63;;;25.67;86.78
10480;BME280;12789;42.610;23.040;2022-09-09T08:52:39;93809.13;;;26.06;86.74
10480;BME280;12789;42.610;23.040;2022-09-09T08:55:20;93813.59;;;26.68;88.01
10480;BME280;12789;42.610;23.040;2022-09-09T08:57:51;93813.72;;;25.77;87.96
10480;BME280;12789;42.610;23.040;2022-09-09T09:00:19;93827.94;;;26.05;88.48
10480;BME280;12789;42.610;23.040;2022-09-09T09:02:55;93809.66;;;27.43;85.98
10480;BME280;12789;42.610;23.040;2022-09-09T09:05:28;93811.22;;;27.39;80.99
10480;BME280;12789;42.610;23.040;2022-09-09T09:08:07;93803.16;;;26.27;79.21
10480;BME280;12789;42.610;23.040;2022-09-09T09:10:45;93800.66;;;26.72;80.26
10480;BME280;12789;42.610;23.040;2022-09-09T09:13:18;93814.06;;;26.65;79.24
10480;BME280;12789;42.610;23.040;2022-09-09T09:15:50;93811.53;;;26.70;79.72
10480;BME280;12789;42.610;23.040;2022-09-09T09:18:20;93806.19;;;27.10;79.94
10480;BME280;12789;42.610;23.040;2022-09-09T09:20:53;93812.34;;;25.86;80.50
10480;BME280;12789;42.610;23.040;2022-09-09T09:23:23;93815.25;;;27.58;77.65
10480;BME280;12789;42.610;23.040;2022-09-09T09:25:53;93806.94;;;27.54;78.01
10480;BME280;12789;42.610;23.040;2022-09-09T09:28:25;93800.31;;;26.96;76.83
10480;BME280;12789;42.610;23.040;2022-09-09T09:30:56;93798.50;;;26.06;77.49
10480;BME280;12789;42.610;23.040;2022-09-09T09:33:27;93791.50;;;27.40;75.91
10480;BME280;12789;42.610;23.040;2022-09-09T09:35:57;93794.28;;;26.73;78.42
10480;BME280;12789;42.610;23.040;2022-09-09T09:38:27;93793.00;;;26.75;77.23
10480;BME280;12789;42.610;23.040;2022-09-09T09:40:55;93787.03;;;27.73;75.92
10480;BME280;12789;42.610;23.040;2022-09-09T09:43:27;93785.72;;;27.10;76.77
10480;BME280;12789;42.610;23.040;2022-09-09T09:45:55;93772.97;;;27.12;76.37
10480;BME280;12789;42.610;23.040;2022-09-09T09:48:23;93785.53;;;27.17;77.30
10480;BME280;12789;42.610;23.040;2022-09-09T09:50:52;93792.19;;;26.35;79.61
10480;BME280;12789;42.610;23.040;2022-09-09T09:53:22;93800.22;;;25.90;80.07
10480;BME280;12789;42.610;23.040;2022-09-09T09:55:54;93801.22;;;26.34;79.28
10480;BME280;12789;42.610;23.040;2022-09-09T09:58:21;93776.91;;;26.42;80.38
10480;BME280;12789;42.610;23.040;2022-09-09T10:00:51;93797.09;;;27.39;77.18
10480;BME280;12789;42.610;23.040;2022-09-09T10:03:22;93799.38;;;25.66;79.77
10480;BME280;12789;42.610;23.040;2022-09-09T10:05:50;93803.44;;;25.80;79.96
10480;BME280;12789;42.610;23.040;2022-09-09T10:08:18;93805.22;;;25.98;79.12
10480;BME280;12789;42.610;23.040;2022-09-09T10:13:49;93814.94;;;25.17;81.31
10480;BME280;12789;42.610;23.040;2022-09-09T10:16:33;93812.53;;;24.68;81.27
10480;BME280;12789;42.610;23.040;2022-09-09T10:19:08;93810.63;;;25.16;80.55
10480;BME280;12789;42.610;23.040;2022-09-09T10:21:56;93814.38;;;24.67;82.18
10480;BME280;12789;42.610;23.040;2022-09-09T10:24:40;93810.75;;;24.80;82.11
10480;BME280;12789;42.610;23.040;2022-09-09T10:27:17;93821.44;;;24.73;81.57
10480;BME280;12789;42.610;23.040;2022-09-09T10:30:04;93829.59;;;24.72;83.16
10480;BME280;12789;42.610;23.040;2022-09-09T10:32:40;93825.38;;;24.17;85.28
10480;BME280;12789;42.610;23.040;2022-09-09T10:35:14;93833.25;;;24.59;83.48
10480;BME280;12789;42.610;23.040;2022-09-09T10:37:58;93832.00;;;24.26;85.33
10480;BME280;12789;42.610;23.040;2022-09-09T10:40:32;93837.16;;;24.39;85.38
10480;BME280;12789;42.610;23.040;2022-09-09T10:43:07;93841.66;;;24.21;85.16
10480;BME280;12789;42.610;23.040;2022-09-09T10:45:44;93836.19;;;24.33;85.07
10480;BME280;12789;42.610;23.040;2022-09-09T10:48:31;93834.34;;;24.16;86.21
10480;BME280;12789;42.610;23.040;2022-09-09T10:51:23;93841.88;;;24.55;85.53
10480;BME280;12789;42.610;23.040;2022-09-09T10:54:07;93845.41;;;24.96;83.44
10480;BME280;12789;42.610;23.040;2022-09-09T10:56:42;93847.31;;;24.89;84.57
10480;BME280;12789;42.610;23.040;2022-09-09T10:59:14;93840.84;;;24.85;83.82
10480;BME280;12789;42.610;23.040;2022-09-09T11:01:45;93847.75;;;24.03;85.62
10480;BME280;12789;42.610;23.040;2022-09-09T11:04:21;93843.50;;;24.56;85.40
10480;BME280;12789;42.610;23.040;2022-09-09T11:06:52;93845.34;;;24.85;83.44
10480;BME280;12789;42.610;23.040;2022-09-09T11:09:22;93839.59;;;24.88;83.44
10480;BME280;12789;42.610;23.040;2022-09-09T11:11:54;93838.97;;;25.04;83.13
10480;BME280;12789;42.610;23.040;2022-09-09T11:14:27;93803.03;;;23.95;85.94
10480;BME280;12789;42.610;23.040;2022-09-09T11:16:57;93803.44;;;23.92;87.56
10480;BME280;12789;42.610;23.040;2022-09-09T11:19:32;93817.66;;;24.16;88.52
10480;BME280;12789;42.610;23.040;2022-09-09T11:22:02;93819.84;;;24.01;88.97
10480;BME280;12789;42.610;23.040;2022-09-09T11:24:35;93802.06;;;23.90;90.31
10480;BME280;12789;42.610;23.040;2022-09-09T11:27:08;93805.50;;;24.26;90.16
10480;BME280;12789;42.610;23.040;2022-09-09T11:30:02;93794.66;;;24.93;86.42
10480;BME280;12789;42.610;23.040;2022-09-09T11:35:43;93757.38;;;24.88;88.12
10480;BME280;12789;42.610;23.040;2022-09-09T11:38:16;93764.13;;;24.43;89.60
10480;BME280;12789;42.610;23.040;2022-09-09T11:40:46;93775.13;;;24.87;88.82
10480;BME280;12789;42.610;23.040;2022-09-09T11:43:15;93767.53;;;24.50;89.25
10480;BME280;12789;42.610;23.040;2022-09-09T11:45:51;93766.44;;;24.69;88.47
10480;BME280;12789;42.610;23.040;2022-09-09T11:48:26;93770.78;;;24.93;86.54
10480;BME280;12789;42.610;23.040;2022-09-09T11:51:03;93762.84;;;25.04;87.55
10480;BME280;12789;42.610;23.040;2022-09-09T11:53:31;93762.44;;;24.89;85.56
10480;BME280;12789;42.610;23.040;2022-09-09T11:56:24;93767.78;;;25.01;87.34
10480;BME280;12789;42.610;23.040;2022-09-09T11:58:57;93766.38;;;25.28;86.33
10480;BME280;12789;42.610;23.040;2022-09-09T12:01:40;93761.69;;;25.12;84.80
10480;BME280;12789;42.610;23.040;2022-09-09T12:04:29;93755.19;;;24.85;84.57
10480;BME280;12789;42.610;23.040;2022-09-09T12:07:02;93761.31;;;25.38;83.12
10480;BME280;12789;42.610;23.040;2022-09-09T12:09:36;93759.69;;;25.83;82.80
10480;BME280;12789;42.610;23.040;2022-09-09T12:12:30;93752.44;;;25.03;84.70
10480;BME280;12789;42.610;23.040;2022-09-09T12:15:00;93743.13;;;25.00;81.47
10480;BME280;12789;42.610;23.040;2022-09-09T12:17:29;93746.75;;;25.17;83.68
10480;BME280;12789;42.610;23.040;2022-09-09T12:20:02;93743.66;;;25.43;84.00
10480;BME280;12789;42.610;23.040;2022-09-09T12:22:39;93751.03;;;25.41;83.78
10480;BME280;12789;42.610;23.040;2022-09-09T12:25:19;93744.13;;;25.86;83.40
10480;BME280;12789;42.610;23.040;2022-09-09T12:28:00;93738.25;;;26.23;81.40
10480;BME280;12789;42.610;23.040;2022-09-09T12:30:32;93751.31;;;25.10;84.15
10480;BME280;12789;42.610;23.040;2022-09-09T12:33:02;93746.66;;;25.24;85.50
10480;BME280;12789;42.610;23.040;2022-09-09T12:35:34;93741.69;;;24.86;86.02
10480;BME280;12789;42.610;23.040;2022-09-09T12:38:06;93742.91;;;24.61;88.83
10480;BME280;12789;42.610;23.040;2022-09-09T12:40:36;93737.91;;;24.53;90.43
10480;BME280;12789;42.610;23.040;2022-09-09T12:43:17;93737.34;;;24.51;90.48
10480;BME280;12789;42.610;23.040;2022-09-09T12:45:44;93728.81;;;24.31;90.99
10480;BME280;12789;42.610;23.040;2022-09-09T12:48:12;93726.44;;;24.41;90.51
10480;BME280;12789;42.610;23.040;2022-09-09T12:50:45;93713.13;;;24.30;91.26
10480;BME280;12789;42.610;23.040;2022-09-09T12:53:21;93711.31;;;25.23;88.06
10480;BME280;12789;42.610;23.040;2022-09-09T12:55:51;93707.84;;;24.30;90.80
10480;BME280;12789;42.610;23.040;2022-09-09T12:58:19;93718.66;;;25.10;87.79
10480;BME280;12789;42.610;23.040;2022-09-09T13:00:49;93710.59;;;25.16;88.33
10480;BME280;12789;42.610;23.040;2022-09-09T13:03:19;93713.50;;;25.15;86.73
10480;BME280;12789;42.610;23.040;2022-09-09T13:05:50;93709.22;;;25.02;85.26
10480;BME280;12789;42.610;23.040;2022-09-09T13:08:20;93685.31;;;24.91;87.96
10480;BME280;12789;42.610;23.040;2022-09-09T13:10:51;93695.47;;;24.94;85.79